sensor_id;sensor_type;location;lat;lon;timestamp;P1;durP1;ratioP1;P2;durP2;ratioP2
50779;SDS011;36748;37.428;-121.972;2023-02-18T00:02:22;2.00;;;1.45;;
50779;SDS011;36748;37.428;-121.972;2023-02-18T00:04:49;2.00;;;1.13;;
50779;SDS011;36748;37.428;-121.972;2023-02-18T00:07:18;5.22;;;1.20;;
50779;SDS011;36748;37.428;-121.972;2023-02-18T00:09:45;2.28;;;0.75;;
50779;SDS011;36748;37.428;-121.972;2023-02-18T00:12:11;0.93;;;0.73;;
50779;SDS011;36748;37.428;-121.972;2023-02-18T00:14:37;1.20;;;0.82;;
50779;SDS011;36748;37.428;-121.972;2023-02-18T00:17:04;1.23;;;1.00;;
50779;SDS011;36748;37.428;-121.972;2023-02-18T00:19:30;2.65;;;1.00;;
50779;SDS011;36748;37.428;-121.972;2023-02-18T00:21:56;2.83;;;1.23;;
50779;SDS011;36748;37.428;-121.972;2023-02-18T00:24:22;1.67;;;1.10;;
50779;SDS011;36748;37.428;-121.972;2023-02-18T00:26:50;1.20;;;0.80;;
50779;SDS011;36748;37.428;-121.972;2023-02-18T00:29:17;1.27;;;0.88;;
50779;SDS011;36748;37.428;-121.972;2023-02-18T00:31:44;1.98;;;1.00;;
50779;SDS011;36748;37.428;-121.972;2023-02-18T00:34:11;1.95;;;0.80;;
50779;SDS011;36748;37.428;-121.972;2023-02-18T00:36:38;0.90;;;0.80;;
50779;SDS011;36748;37.428;-121.972;2023-02-18T00:39:05;1.55;;;1.10;;
50779;SDS011;36748;37.428;-121.972;2023-02-18T00:41:33;1.35;;;0.95;;
50779;SDS011;36748;37.428;-121.972;2023-02-18T00:44:00;1.05;;;0.63;;
50779;SDS011;36748;37.428;-121.972;2023-02-18T00:46:27;1.10;;;1.00;;
50779;SDS011;36748;37.428;-121.972;2023-02-18T00:48:53;1.25;;;0.98;;
50779;SDS011;36748;37.428;-121.972;2023-02-18T00:51:20;3.03;;;1.17;;
50779;SDS011;36748;37.428;-121.972;2023-02-18T00:54:06;2.05;;;1.05;;
50779;SDS011;36748;37.428;-121.972;2023-02-18T00:56:33;1.70;;;1.08;;
50779;SDS011;36748;37.428;-121.972;2023-02-18T00:59:00;1.23;;;0.82;;
50779;SDS011;36748;37.428;-121.972;2023-02-18T01:01:27;1.83;;;0.70;;
50779;SDS011;36748;37.428;-121.972;2023-02-18T01:03:53;1.63;;;1.13;;
50779;SDS011;36748;37.428;-121.972;2023-02-18T01:06:20;1.25;;;0.75;;
50779;SDS011;36748;37.428;-121.972;2023-02-18T01:08:46;1.00;;;0.73;;
50779;SDS011;36748;37.428;-121.972;2023-02-18T01:11:13;1.60;;;1.17;;
50779;SDS011;36748;37.428;-121.972;2023-02-18T01:13:39;1.83;;;1.02;;
50779;SDS011;36748;37.428;-121.972;2023-02-18T01:16:06;1.63;;;0.80;;
50779;SDS011;36748;37.428;-121.972;2023-02-18T01:18:33;3.05;;;1.20;;
50779;SDS011;36748;37.428;-121.972;2023-02-18T01:21:00;2.47;;;0.88;;
50779;SDS011;36748;37.428;-121.972;2023-02-18T01:23:26;16.20;;;6.70;;
50779;SDS011;36748;37.428;-121.972;2023-02-18T01:25:52;19.30;;;10.07;;
50779;SDS011;36748;37.428;-121.972;2023-02-18T01:28:18;22.40;;;12.35;;
50779;SDS011;36748;37.428;-121.972;2023-02-18T01:30:49;21.88;;;8.15;;
50779;SDS011;36748;37.428;-121.972;2023-02-18T01:33:16;15.90;;;8.05;;
50779;SDS011;36748;37.428;-121.972;2023-02-18T01:35:43;16.77;;;7.20;;
50779;SDS011;36748;37.428;-121.972;2023-02-18T01:38:09;8.82;;;5.03;;
50779;SDS011;36748;37.428;-121.972;2023-02-18T01:40:36;12.55;;;5.50;;
50779;SDS011;36748;37.428;-121.972;2023-02-18T01:43:11;10.52;;;5.32;;
50779;SDS011;36748;37.428;-121.972;2023-02-18T01:51:28;9.35;;;5.40;;
50779;SDS011;36748;37.428;-121.972;2023-02-18T01:54:04;7.15;;;5.20;;
50779;SDS011;36748;37.428;-121.972;2023-02-18T01:56:40;9.85;;;5.30;;
50779;SDS011;36748;37.428;-121.972;2023-02-18T01:59:12;12.93;;;5.68;;
50779;SDS011;36748;37.428;-121.972;2023-02-18T02:01:48;11.65;;;5.97;;
50779;SDS011;36748;37.428;-121.972;2023-02-18T02:04:15;7.53;;;5.00;;
50779;SDS011;36748;37.428;-121.972;2023-02-18T02:06:42;7.78;;;5.00;;
50779;SDS011;36748;37.428;-121.972;2023-02-18T02:09:09;7.65;;;5.03;;
50779;SDS011;36748;37.428;-121.972;2023-02-18T02:14:21;6.30;;;4.75;;
50779;SDS011;36748;37.428;-121.972;2023-02-18T02:17:03;6.00;;;4.05;;
50779;SDS011;36748;37.428;-121.972;2023-02-18T02:28:49;5.22;;;3.45;;
50779;SDS011;36748;37.428;-121.972;2023-02-18T02:36:35;8.38;;;3.67;;
50779;SDS011;36748;37.428;-121.972;2023-02-18T02:44:53;5.07;;;3.25;;
50779;SDS011;36748;37.428;-121.972;2023-02-18T02:52:25;7.65;;;3.20;;
50779;SDS011;36748;37.428;-121.972;2023-02-18T02:55:10;5.05;;;3.17;;
50779;SDS011;36748;37.428;-121.972;2023-02-18T02:57:42;6.07;;;3.50;;
50779;SDS011;36748;37.428;-121.972;2023-02-18T03:00:10;5.10;;;3.28;;
50779;SDS011;36748;37.428;-121.972;2023-02-18T03:11:10;6.22;;;2.90;;
50779;SDS011;36748;37.428;-121.972;2023-02-18T03:13:44;3.97;;;2.60;;
50779;SDS011;36748;37.428;-121.972;2023-02-18T03:21:47;4.20;;;2.72;;
50779;SDS011;36748;37.428;-121.972;2023-02-18T03:24:26;5.38;;;2.90;;
50779;SDS011;36748;37.428;-121.972;2023-02-18T03:26:56;3.75;;;2.53;;
50779;SDS011;36748;37.428;-121.972;2023-02-18T03:29:24;7.07;;;3.25;;
50779;SDS011;36748;37.428;-121.972;2023-02-18T03:31:53;6.90;;;3.35;;
50779;SDS011;36748;37.428;-121.972;2023-02-18T03:34:24;7.93;;;3.13;;
50779;SDS011;36748;37.428;-121.972;2023-02-18T03:36:53;6.60;;;3.42;;
50779;SDS011;36748;37.428;-121.972;2023-02-18T03:39:20;11.20;;;5.80;;
50779;SDS011;36748;37.428;-121.972;2023-02-18T03:41:48;12.07;;;8.75;;
50779;SDS011;36748;37.428;-121.972;2023-02-18T03:44:14;18.70;;;11.60;;
50779;SDS011;36748;37.428;-121.972;2023-02-18T03:46:41;20.65;;;13.70;;
50779;SDS011;36748;37.428;-121.972;2023-02-18T03:49:08;19.95;;;14.23;;
50779;SDS011;36748;37.428;-121.972;2023-02-18T03:51:36;22.10;;;13.10;;
50779;SDS011;36748;37.428;-121.972;2023-02-18T03:54:02;17.98;;;12.18;;
50779;SDS011;36748;37.428;-121.972;2023-02-18T03:56:28;18.95;;;12.35;;
50779;SDS011;36748;37.428;-121.972;2023-02-18T03:58:54;18.65;;;12.82;;
50779;SDS011;36748;37.428;-121.972;2023-02-18T04:01:21;17.00;;;12.00;;
50779;SDS011;36748;37.428;-121.972;2023-02-18T04:03:47;16.88;;;12.70;;
50779;SDS011;36748;37.428;-121.972;2023-02-18T04:06:14;19.77;;;13.20;;
50779;SDS011;36748;37.428;-121.972;2023-02-18T04:08:40;15.15;;;11.95;;
50779;SDS011;36748;37.428;-121.972;2023-02-18T04:11:07;17.30;;;12.35;;
50779;SDS011;36748;37.428;-121.972;2023-02-18T04:13:33;21.70;;;13.23;;
50779;SDS011;36748;37.428;-121.972;2023-02-18T04:16:00;20.05;;;13.10;;
50779;SDS011;36748;37.428;-121.972;2023-02-18T04:18:26;16.23;;;11.45;;
50779;SDS011;36748;37.428;-121.972;2023-02-18T04:20:52;18.67;;;12.25;;
50779;SDS011;36748;37.428;-121.972;2023-02-18T04:23:18;15.45;;;11.75;;
50779;SDS011;36748;37.428;-121.972;2023-02-18T04:25:45;16.48;;;11.55;;
50779;SDS011;36748;37.428;-121.972;2023-02-18T04:28:12;17.08;;;12.10;;
50779;SDS011;36748;37.428;-121.972;2023-02-18T04:30:40;14.90;;;11.52;;
50779;SDS011;36748;37.428;-121.972;2023-02-18T04:33:06;16.38;;;12.20;;
50779;SDS011;36748;37.428;-121.972;2023-02-18T04:35:32;17.70;;;12.18;;
50779;SDS011;36748;37.428;-121.972;2023-02-18T04:37:58;17.15;;;10.73;;
50779;SDS011;36748;37.428;-121.972;2023-02-18T04:40:25;18.45;;;10.60;;
50779;SDS011;36748;37.428;-121.972;2023-02-18T04:42:55;19.27;;;11.07;;
50779;SDS011;36748;37.428;-121.972;2023-02-18T04:45:25;17.02;;;10.73;;
50779;SDS011;36748;37.428;-121.972;2023-02-18T04:47:52;22.40;;;11.32;;
50779;SDS011;36748;37.428;-121.972;2023-02-18T04:50:19;23.85;;;11.05;;
50779;SDS011;36748;37.428;-121.972;2023-02-18T04:52:46;18.98;;;10.73;;
50779;SDS011;36748;37.428;-121.972;2023-02-18T04:55:12;19.65;;;10.55;;
50779;SDS011;36748;37.428;-121.972;2023-02-18T04:57:38;15.73;;;10.23;;
50779;SDS011;36748;37.428;-121.972;2023-02-18T05:00:05;22.10;;;9.95;;
50779;SDS011;36748;37.428;-121.972;2023-02-18T05:02:33;20.38;;;9.55;;
50779;SDS011;36748;37.428;-121.972;2023-02-18T05:04:59;19.75;;;10.13;;
50779;SDS011;36748;37.428;-121.972;2023-02-18T05:07:25;14.77;;;9.48;;
50779;SDS011;36748;37.428;-121.972;2023-02-18T05:09:52;12.63;;;9.93;;
50779;SDS011;36748;37.428;-121.972;2023-02-18T05:12:18;15.27;;;10.07;;
50779;SDS011;36748;37.428;-121.972;2023-02-18T05:14:44;13.30;;;9.57;;
50779;SDS011;36748;37.428;-121.972;2023-02-18T05:17:11;11.98;;;8.60;;
50779;SDS011;36748;37.428;-121.972;2023-02-18T05:19:37;12.65;;;8.48;;
50779;SDS011;36748;37.428;-121.972;2023-02-18T05:22:03;15.00;;;9.45;;
50779;SDS011;36748;37.428;-121.972;2023-02-18T05:24:29;15.43;;;9.20;;
50779;SDS011;36748;37.428;-121.972;2023-02-18T05:26:55;11.32;;;7.88;;
50779;SDS011;36748;37.428;-121.972;2023-02-18T05:29:22;9.88;;;8.27;;
50779;SDS011;36748;37.428;-121.972;2023-02-18T05:31:48;11.38;;;7.55;;
50779;SDS011;36748;37.428;-121.972;2023-02-18T05:34:14;12.15;;;8.10;;
50779;SDS011;36748;37.428;-121.972;2023-02-18T05:36:40;13.30;;;8.23;;
50779;SDS011;36748;37.428;-121.972;2023-02-18T05:39:07;10.80;;;8.10;;
50779;SDS011;36748;37.428;-121.972;2023-02-18T05:41:33;9.65;;;7.35;;
50779;SDS011;36748;37.428;-121.972;2023-02-18T05:43:59;10.48;;;7.82;;
50779;SDS011;36748;37.428;-121.972;2023-02-18T05:46:44;11.55;;;8.05;;
50779;SDS011;36748;37.428;-121.972;2023-02-18T05:49:10;10.77;;;7.30;;
50779;SDS011;36748;37.428;-121.972;2023-02-18T05:51:37;10.25;;;7.13;;
50779;SDS011;36748;37.428;-121.972;2023-02-18T05:54:03;10.20;;;7.00;;
50779;SDS011;36748;37.428;-121.972;2023-02-18T05:56:30;9.45;;;7.18;;
50779;SDS011;36748;37.428;-121.972;2023-02-18T05:58:56;10.95;;;7.55;;
50779;SDS011;36748;37.428;-121.972;2023-02-18T06:01:22;8.20;;;6.82;;
50779;SDS011;36748;37.428;-121.972;2023-02-18T06:03:49;12.25;;;7.10;;
50779;SDS011;36748;37.428;-121.972;2023-02-18T06:06:15;9.75;;;6.95;;
50779;SDS011;36748;37.428;-121.972;2023-02-18T06:08:41;8.95;;;7.10;;
50779;SDS011;36748;37.428;-121.972;2023-02-18T06:11:08;9.63;;;6.57;;
50779;SDS011;36748;37.428;-121.972;2023-02-18T06:13:34;9.02;;;6.70;;
50779;SDS011;36748;37.428;-121.972;2023-02-18T06:16:00;8.07;;;6.13;;
50779;SDS011;36748;37.428;-121.972;2023-02-18T06:18:26;10.52;;;7.05;;
50779;SDS011;36748;37.428;-121.972;2023-02-18T06:20:53;8.38;;;6.32;;
50779;SDS011;36748;37.428;-121.972;2023-02-18T06:23:19;9.07;;;6.30;;
50779;SDS011;36748;37.428;-121.972;2023-02-18T06:25:47;8.95;;;6.03;;
50779;SDS011;36748;37.428;-121.972;2023-02-18T06:28:14;7.90;;;6.30;;
50779;SDS011;36748;37.428;-121.972;2023-02-18T06:30:41;8.70;;;5.85;;
50779;SDS011;36748;37.428;-121.972;2023-02-18T06:33:08;8.30;;;5.82;;
50779;SDS011;36748;37.428;-121.972;2023-02-18T06:35:35;8.35;;;5.93;;
50779;SDS011;36748;37.428;-121.972;2023-02-18T06:38:01;8.27;;;5.93;;
50779;SDS011;36748;37.428;-121.972;2023-02-18T06:40:27;8.13;;;5.32;;
50779;SDS011;36748;37.428;-121.972;2023-02-18T06:42:54;6.85;;;5.60;;
50779;SDS011;36748;37.428;-121.972;2023-02-18T06:45:20;7.82;;;5.85;;
50779;SDS011;36748;37.428;-121.972;2023-02-18T06:47:46;7.50;;;5.95;;
50779;SDS011;36748;37.428;-121.972;2023-02-18T06:50:13;6.65;;;5.38;;
50779;SDS011;36748;37.428;-121.972;2023-02-18T06:52:39;7.00;;;5.40;;
50779;SDS011;36748;37.428;-121.972;2023-02-18T06:55:06;6.07;;;4.78;;
50779;SDS011;36748;37.428;-121.972;2023-02-18T06:57:33;7.20;;;5.03;;
50779;SDS011;36748;37.428;-121.972;2023-02-18T07:00:00;7.28;;;5.22;;
50779;SDS011;36748;37.428;-121.972;2023-02-18T07:02:26;5.82;;;4.82;;
50779;SDS011;36748;37.428;-121.972;2023-02-18T07:04:52;9.02;;;5.28;;
50779;SDS011;36748;37.428;-121.972;2023-02-18T07:07:19;6.80;;;5.00;;
50779;SDS011;36748;37.428;-121.972;2023-02-18T07:09:45;8.88;;;5.38;;
50779;SDS011;36748;37.428;-121.972;2023-02-18T07:12:11;6.63;;;5.35;;
50779;SDS011;36748;37.428;-121.972;2023-02-18T07:14:37;6.30;;;5.10;;
50779;SDS011;36748;37.428;-121.972;2023-02-18T07:17:03;7.90;;;4.78;;
50779;SDS011;36748;37.428;-121.972;2023-02-18T07:19:30;6.25;;;4.60;;
50779;SDS011;36748;37.428;-121.972;2023-02-18T07:21:56;7.05;;;4.60;;
50779;SDS011;36748;37.428;-121.972;2023-02-18T07:24:22;5.72;;;4.47;;
50779;SDS011;36748;37.428;-121.972;2023-02-18T07:26:48;6.18;;;4.45;;
50779;SDS011;36748;37.428;-121.972;2023-02-18T07:29:15;6.15;;;4.68;;
50779;SDS011;36748;37.428;-121.972;2023-02-18T07:31:41;5.68;;;4.55;;
50779;SDS011;36748;37.428;-121.972;2023-02-18T07:34:08;6.00;;;3.90;;
50779;SDS011;36748;37.428;-121.972;2023-02-18T07:36:34;5.43;;;4.00;;
50779;SDS011;36748;37.428;-121.972;2023-02-18T07:39:00;5.47;;;4.03;;
50779;SDS011;36748;37.428;-121.972;2023-02-18T07:41:27;4.65;;;4.07;;
50779;SDS011;36748;37.428;-121.972;2023-02-18T07:43:53;6.47;;;4.25;;
50779;SDS011;36748;37.428;-121.972;2023-02-18T07:46:20;5.10;;;3.83;;
50779;SDS011;36748;37.428;-121.972;2023-02-18T07:48:46;5.30;;;4.20;;
50779;SDS011;36748;37.428;-121.972;2023-02-18T07:51:12;5.05;;;3.70;;
50779;SDS011;36748;37.428;-121.972;2023-02-18T07:53:38;4.97;;;4.22;;
50779;SDS011;36748;37.428;-121.972;2023-02-18T07:56:05;4.65;;;3.63;;
50779;SDS011;36748;37.428;-121.972;2023-02-18T07:58:32;4.95;;;3.80;;
50779;SDS011;36748;37.428;-121.972;2023-02-18T08:01:04;4.22;;;3.83;;
50779;SDS011;36748;37.428;-121.972;2023-02-18T08:03:34;4.63;;;3.70;;
50779;SDS011;36748;37.428;-121.972;2023-02-18T08:06:01;6.05;;;3.58;;
50779;SDS011;36748;37.428;-121.972;2023-02-18T08:08:28;5.55;;;3.65;;
50779;SDS011;36748;37.428;-121.972;2023-02-18T08:11:14;4.50;;;3.50;;
50779;SDS011;36748;37.428;-121.972;2023-02-18T08:13:41;5.50;;;3.60;;
50779;SDS011;36748;37.428;-121.972;2023-02-18T08:16:08;4.30;;;3.22;;
50779;SDS011;36748;37.428;-121.972;2023-02-18T08:18:34;6.20;;;3.58;;
50779;SDS011;36748;37.428;-121.972;2023-02-18T08:21:00;4.30;;;3.35;;
50779;SDS011;36748;37.428;-121.972;2023-02-18T08:23:27;5.18;;;3.33;;
50779;SDS011;36748;37.428;-121.972;2023-02-18T08:25:53;4.68;;;3.47;;
50779;SDS011;36748;37.428;-121.972;2023-02-18T08:28:20;3.38;;;2.85;;
50779;SDS011;36748;37.428;-121.972;2023-02-18T08:30:48;4.20;;;3.50;;
50779;SDS011;36748;37.428;-121.972;2023-02-18T08:33:16;3.72;;;3.10;;
50779;SDS011;36748;37.428;-121.972;2023-02-18T08:35:43;4.45;;;3.53;;
50779;SDS011;36748;37.428;-121.972;2023-02-18T08:38:10;4.30;;;3.45;;
50779;SDS011;36748;37.428;-121.972;2023-02-18T08:40:36;3.85;;;3.25;;
50779;SDS011;36748;37.428;-121.972;2023-02-18T08:43:03;4.97;;;2.72;;
50779;SDS011;36748;37.428;-121.972;2023-02-18T08:45:29;3.05;;;2.75;;
50779;SDS011;36748;37.428;-121.972;2023-02-18T08:47:55;5.65;;;3.10;;
50779;SDS011;36748;37.428;-121.972;2023-02-18T08:50:21;5.00;;;3.00;;
50779;SDS011;36748;37.428;-121.972;2023-02-18T08:52:54;3.83;;;3.35;;
50779;SDS011;36748;37.428;-121.972;2023-02-18T08:55:21;4.20;;;3.13;;
50779;SDS011;36748;37.428;-121.972;2023-02-18T08:57:48;5.80;;;3.28;;
50779;SDS011;36748;37.428;-121.972;2023-02-18T09:00:15;3.45;;;2.80;;
50779;SDS011;36748;37.428;-121.972;2023-02-18T09:02:41;3.97;;;2.83;;
50779;SDS011;36748;37.428;-121.972;2023-02-18T09:05:08;3.30;;;2.60;;
50779;SDS011;36748;37.428;-121.972;2023-02-18T09:07:35;3.47;;;2.40;;
50779;SDS011;36748;37.428;-121.972;2023-02-18T09:10:02;4.85;;;2.70;;
50779;SDS011;36748;37.428;-121.972;2023-02-18T09:12:28;2.97;;;2.67;;
50779;SDS011;36748;37.428;-121.972;2023-02-18T09:14:55;3.28;;;2.92;;
50779;SDS011;36748;37.428;-121.972;2023-02-18T09:17:21;2.97;;;2.58;;
50779;SDS011;36748;37.428;-121.972;2023-02-18T09:19:47;3.05;;;2.70;;
50779;SDS011;36748;37.428;-121.972;2023-02-18T09:22:14;2.90;;;2.50;;
50779;SDS011;36748;37.428;-121.972;2023-02-18T09:24:40;3.60;;;2.92;;
50779;SDS011;36748;37.428;-121.972;2023-02-18T09:27:07;3.33;;;2.83;;
50779;SDS011;36748;37.428;-121.972;2023-02-18T09:29:33;2.70;;;2.50;;
50779;SDS011;36748;37.428;-121.972;2023-02-18T09:32:04;3.08;;;2.58;;
50779;SDS011;36748;37.428;-121.972;2023-02-18T09:34:31;3.65;;;2.70;;
50779;SDS011;36748;37.428;-121.972;2023-02-18T09:36:58;3.85;;;2.80;;
50779;SDS011;36748;37.428;-121.972;2023-02-18T09:39:24;3.10;;;2.65;;
50779;SDS011;36748;37.428;-121.972;2023-02-18T09:41:51;2.53;;;2.30;;
50779;SDS011;36748;37.428;-121.972;2023-02-18T09:44:31;2.80;;;2.50;;
50779;SDS011;36748;37.428;-121.972;2023-02-18T09:49:39;3.08;;;2.42;;
50779;SDS011;36748;37.428;-121.972;2023-02-18T09:52:21;3.22;;;2.40;;
50779;SDS011;36748;37.428;-121.972;2023-02-18T09:54:51;4.15;;;2.50;;
50779;SDS011;36748;37.428;-121.972;2023-02-18T09:57:27;2.50;;;2.20;;
50779;SDS011;36748;37.428;-121.972;2023-02-18T10:00:02;2.75;;;2.35;;
50779;SDS011;36748;37.428;-121.972;2023-02-18T10:02:31;2.78;;;2.25;;
50779;SDS011;36748;37.428;-121.972;2023-02-18T10:04:57;2.95;;;2.50;;
50779;SDS011;36748;37.428;-121.972;2023-02-18T10:07:25;2.85;;;2.25;;
50779;SDS011;36748;37.428;-121.972;2023-02-18T10:09:53;3.30;;;2.20;;
50779;SDS011;36748;37.428;-121.972;2023-02-18T10:12:22;2.30;;;2.10;;
50779;SDS011;36748;37.428;-121.972;2023-02-18T10:14:54;2.50;;;2.20;;
50779;SDS011;36748;37.428;-121.972;2023-02-18T10:17:22;2.67;;;2.40;;
50779;SDS011;36748;37.428;-121.972;2023-02-18T10:19:50;4.28;;;2.58;;
50779;SDS011;36748;37.428;-121.972;2023-02-18T10:22:18;3.13;;;2.30;;
50779;SDS011;36748;37.428;-121.972;2023-02-18T10:27:25;2.20;;;1.90;;
50779;SDS011;36748;37.428;-121.972;2023-02-18T10:29:54;2.55;;;2.05;;
50779;SDS011;36748;37.428;-121.972;2023-02-18T10:32:34;2.63;;;2.15;;
50779;SDS011;36748;37.428;-121.972;2023-02-18T10:38:25;3.10;;;2.10;;
50779;SDS011;36748;37.428;-121.972;2023-02-18T10:52:04;2.22;;;2.00;;
50779;SDS011;36748;37.428;-121.972;2023-02-18T10:57:47;2.05;;;1.85;;
50779;SDS011;36748;37.428;-121.972;2023-02-18T11:00:16;2.40;;;2.20;;
50779;SDS011;36748;37.428;-121.972;2023-02-18T11:03:05;2.50;;;2.30;;
50779;SDS011;36748;37.428;-121.972;2023-02-18T11:05:43;2.33;;;1.88;;
50779;SDS011;36748;37.428;-121.972;2023-02-18T11:08:15;2.00;;;1.85;;
50779;SDS011;36748;37.428;-121.972;2023-02-18T11:10:45;2.00;;;1.80;;
50779;SDS011;36748;37.428;-121.972;2023-02-18T11:13:12;2.13;;;1.92;;
50779;SDS011;36748;37.428;-121.972;2023-02-18T11:16:00;2.03;;;1.80;;
50779;SDS011;36748;37.428;-121.972;2023-02-18T11:18:37;2.10;;;1.90;;
50779;SDS011;36748;37.428;-121.972;2023-02-18T11:23:48;2.90;;;1.95;;
50779;SDS011;36748;37.428;-121.972;2023-02-18T11:26:16;2.22;;;1.95;;
50779;SDS011;36748;37.428;-121.972;2023-02-18T11:28:45;2.00;;;1.80;;
50779;SDS011;36748;37.428;-121.972;2023-02-18T11:31:21;2.15;;;1.75;;
50779;SDS011;36748;37.428;-121.972;2023-02-18T11:33:50;1.73;;;1.63;;
50779;SDS011;36748;37.428;-121.972;2023-02-18T11:41:35;2.03;;;1.75;;
50779;SDS011;36748;37.428;-121.972;2023-02-18T11:47:22;2.20;;;1.63;;
50779;SDS011;36748;37.428;-121.972;2023-02-18T11:49:40;3.50;;;1.80;;
50779;SDS011;36748;37.428;-121.972;2023-02-18T11:55:04;2.40;;;1.80;;
50779;SDS011;36748;37.428;-121.972;2023-02-18T11:58:00;2.78;;;2.05;;
50779;SDS011;36748;37.428;-121.972;2023-02-18T12:00:38;3.78;;;1.95;;
50779;SDS011;36748;37.428;-121.972;2023-02-18T12:03:29;2.03;;;1.83;;
50779;SDS011;36748;37.428;-121.972;2023-02-18T12:06:04;4.82;;;2.13;;
50779;SDS011;36748;37.428;-121.972;2023-02-18T12:08:53;2.70;;;1.73;;
50779;SDS011;36748;37.428;-121.972;2023-02-18T12:11:27;1.88;;;1.70;;
50779;SDS011;36748;37.428;-121.972;2023-02-18T12:13:58;2.80;;;1.80;;
50779;SDS011;36748;37.428;-121.972;2023-02-18T12:19:43;2.40;;;1.73;;
50779;SDS011;36748;37.428;-121.972;2023-02-18T12:22:40;1.90;;;1.67;;
50779;SDS011;36748;37.428;-121.972;2023-02-18T12:25:13;1.85;;;1.40;;
50779;SDS011;36748;37.428;-121.972;2023-02-18T12:30:49;2.05;;;1.63;;
50779;SDS011;36748;37.428;-121.972;2023-02-18T12:33:55;2.13;;;1.73;;
50779;SDS011;36748;37.428;-121.972;2023-02-18T12:37:02;4.78;;;1.73;;
50779;SDS011;36748;37.428;-121.972;2023-02-18T12:40:02;1.67;;;1.58;;
50779;SDS011;36748;37.428;-121.972;2023-02-18T12:42:39;1.77;;;1.45;;
50779;SDS011;36748;37.428;-121.972;2023-02-18T12:51:07;1.90;;;1.60;;
50779;SDS011;36748;37.428;-121.972;2023-02-18T13:02:38;1.75;;;1.58;;
50779;SDS011;36748;37.428;-121.972;2023-02-18T13:04:57;1.67;;;1.50;;
50779;SDS011;36748;37.428;-121.972;2023-02-18T13:07:42;1.63;;;1.52;;
50779;SDS011;36748;37.428;-121.972;2023-02-18T13:15:50;1.77;;;1.48;;
50779;SDS011;36748;37.428;-121.972;2023-02-18T13:18:27;2.25;;;1.67;;
50779;SDS011;36748;37.428;-121.972;2023-02-18T13:21:06;1.63;;;1.45;;
50779;SDS011;36748;37.428;-121.972;2023-02-18T13:26:08;1.50;;;1.40;;
50779;SDS011;36748;37.428;-121.972;2023-02-18T13:31:31;1.67;;;1.58;;
50779;SDS011;36748;37.428;-121.972;2023-02-18T13:34:21;1.85;;;1.30;;
50779;SDS011;36748;37.428;-121.972;2023-02-18T13:37:10;1.40;;;1.30;;
50779;SDS011;36748;37.428;-121.972;2023-02-18T13:39:49;1.40;;;1.30;;
50779;SDS011;36748;37.428;-121.972;2023-02-18T13:52:48;0.98;;;0.93;;
50779;SDS011;36748;37.428;-121.972;2023-02-18T13:55:19;1.00;;;0.90;;
50779;SDS011;36748;37.428;-121.972;2023-02-18T13:57:47;0.80;;;0.80;;
50779;SDS011;36748;37.428;-121.972;2023-02-18T14:00:20;1.05;;;0.90;;
50779;SDS011;36748;37.428;-121.972;2023-02-18T14:02:56;0.93;;;0.93;;
50779;SDS011;36748;37.428;-121.972;2023-02-18T14:05:24;1.23;;;0.93;;
50779;SDS011;36748;37.428;-121.972;2023-02-18T14:08:14;0.75;;;0.75;;
50779;SDS011;36748;37.428;-121.972;2023-02-18T14:10:41;0.80;;;0.77;;
50779;SDS011;36748;37.428;-121.972;2023-02-18T14:13:18;0.80;;;0.80;;
50779;SDS011;36748;37.428;-121.972;2023-02-18T14:15:56;0.70;;;0.70;;
50779;SDS011;36748;37.428;-121.972;2023-02-18T14:18:28;0.70;;;0.70;;
50779;SDS011;36748;37.428;-121.972;2023-02-18T14:23:40;1.00;;;1.00;;
50779;SDS011;36748;37.428;-121.972;2023-02-18T14:26:22;1.02;;;0.70;;
50779;SDS011;36748;37.428;-121.972;2023-02-18T14:28:54;0.68;;;0.68;;
50779;SDS011;36748;37.428;-121.972;2023-02-18T14:31:27;1.30;;;0.95;;
50779;SDS011;36748;37.428;-121.972;2023-02-18T14:39:44;0.90;;;0.73;;
50779;SDS011;36748;37.428;-121.972;2023-02-18T14:45:04;2.38;;;0.60;;
50779;SDS011;36748;37.428;-121.972;2023-02-18T14:47:44;2.63;;;0.70;;
50779;SDS011;36748;37.428;-121.972;2023-02-18T14:50:36;2.75;;;0.88;;
50779;SDS011;36748;37.428;-121.972;2023-02-18T14:53:07;2.45;;;1.00;;
50779;SDS011;36748;37.428;-121.972;2023-02-18T14:55:43;4.03;;;0.85;;
50779;SDS011;36748;37.428;-121.972;2023-02-18T15:01:06;2.30;;;0.80;;
50779;SDS011;36748;37.428;-121.972;2023-02-18T15:03:43;8.02;;;1.00;;
50779;SDS011;36748;37.428;-121.972;2023-02-18T15:06:27;1.15;;;0.80;;
50779;SDS011;36748;37.428;-121.972;2023-02-18T15:09:01;2.80;;;1.00;;
50779;SDS011;36748;37.428;-121.972;2023-02-18T15:11:44;0.90;;;0.70;;
50779;SDS011;36748;37.428;-121.972;2023-02-18T15:14:24;6.60;;;1.13;;
50779;SDS011;36748;37.428;-121.972;2023-02-18T15:17:16;0.85;;;0.80;;
50779;SDS011;36748;37.428;-121.972;2023-02-18T15:20:09;0.80;;;0.80;;
50779;SDS011;36748;37.428;-121.972;2023-02-18T15:22:37;0.80;;;0.80;;
50779;SDS011;36748;37.428;-121.972;2023-02-18T15:25:03;0.75;;;0.73;;
50779;SDS011;36748;37.428;-121.972;2023-02-18T15:27:30;3.13;;;0.90;;
50779;SDS011;36748;37.428;-121.972;2023-02-18T15:32:50;2.53;;;0.60;;
50779;SDS011;36748;37.428;-121.972;2023-02-18T15:35:18;3.03;;;0.85;;
50779;SDS011;36748;37.428;-121.972;2023-02-18T15:37:51;0.98;;;0.50;;
50779;SDS011;36748;37.428;-121.972;2023-02-18T15:40:19;1.92;;;0.82;;
50779;SDS011;36748;37.428;-121.972;2023-02-18T15:42:50;2.53;;;1.00;;
50779;SDS011;36748;37.428;-121.972;2023-02-18T15:45:21;0.88;;;0.63;;
50779;SDS011;36748;37.428;-121.972;2023-02-18T15:47:50;0.70;;;0.70;;
50779;SDS011;36748;37.428;-121.972;2023-02-18T15:50:29;0.60;;;0.60;;
50779;SDS011;36748;37.428;-121.972;2023-02-18T15:52:59;0.70;;;0.70;;
50779;SDS011;36748;37.428;-121.972;2023-02-18T15:55:33;0.70;;;0.60;;
50779;SDS011;36748;37.428;-121.972;2023-02-18T15:58:37;3.13;;;0.70;;
50779;SDS011;36748;37.428;-121.972;2023-02-18T16:00:58;6.57;;;0.73;;
50779;SDS011;36748;37.428;-121.972;2023-02-18T16:09:06;0.70;;;0.70;;
50779;SDS011;36748;37.428;-121.972;2023-02-18T16:11:34;0.95;;;0.75;;
50779;SDS011;36748;37.428;-121.972;2023-02-18T16:14:06;0.80;;;0.70;;
50779;SDS011;36748;37.428;-121.972;2023-02-18T16:16:45;17.48;;;1.17;;
50779;SDS011;36748;37.428;-121.972;2023-02-18T16:19:53;1.17;;;0.60;;
50779;SDS011;36748;37.428;-121.972;2023-02-18T16:22:25;1.60;;;0.93;;
50779;SDS011;36748;37.428;-121.972;2023-02-18T16:25:06;0.90;;;0.68;;
50779;SDS011;36748;37.428;-121.972;2023-02-18T16:28:12;1.15;;;0.70;;
50779;SDS011;36748;37.428;-121.972;2023-02-18T16:30:35;0.90;;;0.80;;
50779;SDS011;36748;37.428;-121.972;2023-02-18T16:33:01;1.02;;;0.60;;
50779;SDS011;36748;37.428;-121.972;2023-02-18T16:35:29;0.80;;;0.80;;
50779;SDS011;36748;37.428;-121.972;2023-02-18T16:37:55;2.15;;;0.70;;
50779;SDS011;36748;37.428;-121.972;2023-02-18T16:40:24;1.83;;;0.70;;
50779;SDS011;36748;37.428;-121.972;2023-02-18T16:42:56;1.05;;;0.70;;
50779;SDS011;36748;37.428;-121.972;2023-02-18T16:45:34;0.65;;;0.65;;
50779;SDS011;36748;37.428;-121.972;2023-02-18T16:48:02;0.50;;;0.50;;
50779;SDS011;36748;37.428;-121.972;2023-02-18T16:50:30;1.65;;;0.43;;
50779;SDS011;36748;37.428;-121.972;2023-02-18T16:52:58;1.08;;;0.70;;
50779;SDS011;36748;37.428;-121.972;2023-02-18T16:55:26;6.60;;;1.05;;